createdAt,value
2023-08-29T00:00:27.840Z,78.83
2023-08-29T00:03:32.242Z,78.66
2023-08-29T00:06:34.244Z,78.72
2023-08-29T00:09:36.457Z,78.88
2023-08-29T00:12:38.253Z,79.09
2023-08-29T00:15:40.292Z,79.01
2023-08-29T00:18:44.870Z,79.00
2023-08-29T00:21:48.902Z,78.96
2023-08-29T00:24:53.497Z,78.62
2023-08-29T00:27:55.490Z,78.96
2023-08-29T00:30:57.380Z,79.29
2023-08-29T00:33:59.320Z,79.07
2023-08-29T00:37:01.288Z,78.89
2023-08-29T00:40:04.955Z,79.16
2023-08-29T00:43:07.093Z,79.31
2023-08-29T00:46:09.252Z,79.77
2023-08-29T00:49:13.145Z,79.22
2023-08-29T00:52:15.472Z,79.57
2023-08-29T00:55:18.404Z,79.55
2023-08-29T00:58:20.587Z,79.69
2023-08-29T01:01:22.910Z,79.79
2023-08-29T01:04:24.830Z,80.39
2023-08-29T01:07:26.914Z,79.66
2023-08-29T01:10:38.025Z,79.88
2023-08-29T01:14:04.057Z,80.51
2023-08-29T01:17:12.129Z,80.32
2023-08-29T01:20:15.676Z,81.04
2023-08-29T01:23:29.371Z,81.05
2023-08-29T01:26:32.317Z,81.48
2023-08-29T01:29:35.537Z,81.44
2023-08-29T01:32:40.116Z,81.31
2023-08-29T01:35:48.912Z,82.38
2023-08-29T01:38:50.843Z,82.50
2023-08-29T01:41:52.711Z,82.29
2023-08-29T01:44:55.499Z,82.46
2023-08-29T01:47:57.964Z,82.23
2023-08-29T01:50:59.872Z,83.04
2023-08-29T01:54:01.780Z,82.73
2023-08-29T01:57:05.017Z,83.06
2023-08-29T02:00:08.660Z,82.89
2023-08-29T02:03:16.459Z,82.78
2023-08-29T02:06:18.502Z,82.95
2023-08-29T02:09:20.593Z,83.49
2023-08-29T02:12:22.518Z,83.50
2023-08-29T02:15:24.439Z,83.55
2023-08-29T02:18:26.471Z,83.30
2023-08-29T02:21:28.354Z,83.36
2023-08-29T02:24:30.744Z,83.39
2023-08-29T02:27:36.260Z,84.18
2023-08-29T02:30:38.323Z,83.57
2023-08-29T02:33:40.287Z,83.27
2023-08-29T02:36:42.527Z,83.34
2023-08-29T02:39:44.508Z,83.05
2023-08-29T02:42:46.550Z,83.28
2023-08-29T02:45:53.053Z,83.08
2023-08-29T02:48:54.952Z,82.93
2023-08-29T02:51:57.975Z,83.08
2023-08-29T02:54:59.998Z,82.96
2023-08-29T02:58:02.180Z,83.01
2023-08-29T03:01:07.365Z,82.92
2023-08-29T03:04:09.300Z,82.89
2023-08-29T03:07:11.681Z,82.49
2023-08-29T03:10:13.622Z,82.69
2023-08-29T03:13:15.488Z,82.81
2023-08-29T03:16:20.269Z,82.55
2023-08-29T03:19:22.831Z,82.30
2023-08-29T03:22:25.605Z,82.13
2023-08-29T03:25:27.465Z,81.87
2023-08-29T03:28:29.573Z,81.68
2023-08-29T03:31:31.677Z,81.78
2023-08-29T03:34:35.932Z,81.63
2023-08-29T03:37:37.857Z,81.25
2023-08-29T03:40:39.744Z,80.93
2023-08-29T03:43:41.707Z,80.92
2023-08-29T03:46:44.416Z,80.69
2023-08-29T03:49:46.290Z,80.30
2023-08-29T03:52:48.353Z,80.23
2023-08-29T03:55:51.397Z,80.14
2023-08-29T03:58:53.161Z,80.22
2023-08-29T04:01:55.171Z,79.43
2023-08-29T04:05:13.264Z,79.27
2023-08-29T04:08:16.246Z,79.10
2023-08-29T04:11:18.235Z,79.06
2023-08-29T04:14:20.294Z,78.71
2023-08-29T04:17:22.209Z,78.76
2023-08-29T04:20:24.308Z,78.79
2023-08-29T04:23:27.117Z,78.38
2023-08-29T04:26:29.311Z,78.25
2023-08-29T04:29:31.211Z,77.97
2023-08-29T04:32:35.684Z,78.38
2023-08-29T04:35:37.712Z,78.07
2023-08-29T04:38:39.928Z,77.69
2023-08-29T04:41:41.890Z,77.12
2023-08-29T04:44:45.840Z,76.80
2023-08-29T04:47:49.183Z,76.20
2023-08-29T04:50:51.171Z,76.02
2023-08-29T04:53:53.065Z,75.45
2023-08-29T04:56:54.984Z,75.46
2023-08-29T04:59:56.924Z,74.67
2023-08-29T05:02:59.071Z,74.30
2023-08-29T05:06:01.078Z,74.28
2023-08-29T05:09:03.296Z,73.57
2023-08-29T05:12:05.999Z,73.45
2023-08-29T05:15:09.180Z,72.84
2023-08-29T05:18:12.188Z,72.60
2023-08-29T05:21:14.189Z,72.07
2023-08-29T05:24:16.057Z,71.63
2023-08-29T05:27:17.930Z,71.49
2023-08-29T05:30:19.990Z,71.44
2023-08-29T05:33:22.007Z,71.22
2023-08-29T05:36:23.970Z,71.11
2023-08-29T05:39:25.922Z,70.83
2023-08-29T05:42:28.151Z,70.51
2023-08-29T05:45:30.161Z,70.23
2023-08-29T05:48:32.123Z,70.20
2023-08-29T05:51:34.170Z,70.75
2023-08-29T05:54:37.813Z,71.13
2023-08-29T05:57:39.657Z,71.60
2023-08-29T06:00:41.638Z,72.01
2023-08-29T06:03:43.851Z,72.03
2023-08-29T06:06:45.829Z,72.59
2023-08-29T06:09:47.756Z,72.97
2023-08-29T06:12:49.904Z,72.85
2023-08-29T06:15:51.807Z,72.72
2023-08-29T06:18:53.744Z,72.44
2023-08-29T06:21:55.643Z,72.25
2023-08-29T06:24:57.599Z,71.71
2023-08-29T06:27:59.571Z,71.09
2023-08-29T06:31:11.039Z,69.83
2023-08-29T06:34:13.459Z,69.82
2023-08-29T06:37:16.198Z,68.70
2023-08-29T06:40:18.171Z,67.36
2023-08-29T06:43:20.109Z,66.18
2023-08-29T06:46:22.055Z,64.72
2023-08-29T06:49:23.988Z,63.06
2023-08-29T06:52:27.771Z,62.33
2023-08-29T06:55:29.987Z,62.44
2023-08-29T06:58:31.842Z,61.63
2023-08-29T07:01:34.201Z,61.92
2023-08-29T07:04:36.141Z,61.50
2023-08-29T07:07:38.742Z,61.30
2023-08-29T07:10:40.605Z,61.10
2023-08-29T07:13:42.583Z,60.11
2023-08-29T07:16:50.609Z,60.25
2023-08-29T07:20:03.579Z,59.88
2023-08-29T07:23:10.933Z,59.15
2023-08-29T07:26:12.872Z,59.07
2023-08-29T07:29:14.719Z,58.59
2023-08-29T07:32:16.581Z,58.68
2023-08-29T07:35:18.510Z,56.63
2023-08-29T07:38:20.428Z,56.53
2023-08-29T07:41:22.304Z,55.37
2023-08-29T07:44:24.200Z,55.20
2023-08-29T07:47:26.195Z,54.50
2023-08-29T07:50:28.786Z,53.09
2023-08-29T07:53:30.779Z,53.63
2023-08-29T07:56:32.535Z,52.71
2023-08-29T07:59:34.404Z,52.09
2023-08-29T08:02:39.616Z,51.72
2023-08-29T08:05:41.651Z,51.03
2023-08-29T08:08:43.503Z,50.53
2023-08-29T08:11:45.500Z,51.18
2023-08-29T08:14:47.313Z,49.44
2023-08-29T08:17:49.829Z,49.09
2023-08-29T08:20:51.774Z,48.69
2023-08-29T08:23:53.607Z,48.26
2023-08-29T08:26:55.513Z,48.44
2023-08-29T08:29:57.778Z,47.95
2023-08-29T08:32:59.541Z,47.48
2023-08-29T08:36:01.380Z,48.24
2023-08-29T08:39:05.054Z,46.24
2023-08-29T08:42:07.084Z,46.26
2023-08-29T08:45:11.664Z,45.99
2023-08-29T08:48:14.345Z,45.63
2023-08-29T08:51:20.385Z,45.48
2023-08-29T08:54:22.229Z,45.48
2023-08-29T08:57:24.774Z,45.06
2023-08-29T09:00:26.679Z,45.13
2023-08-29T09:03:28.577Z,45.31
2023-08-29T09:06:31.682Z,45.17
2023-08-29T09:09:33.734Z,44.83
2023-08-29T09:12:35.780Z,44.50
2023-08-29T09:15:39.158Z,44.61
2023-08-29T09:18:44.720Z,44.30
2023-08-29T09:21:46.645Z,43.99
2023-08-29T09:24:50.363Z,43.72
2023-08-29T09:27:52.334Z,43.47
2023-08-29T09:30:54.567Z,43.70
2023-08-29T09:33:56.547Z,44.22
2023-08-29T09:36:59.679Z,44.67
2023-08-29T09:40:11.283Z,44.23
2023-08-29T09:43:23.389Z,44.62
2023-08-29T09:46:30.857Z,44.55
2023-08-29T09:49:43.868Z,44.46
2023-08-29T09:52:46.606Z,43.57
2023-08-29T09:55:54.486Z,43.57
2023-08-29T09:59:00.718Z,43.45
2023-08-29T10:02:05.106Z,43.80
2023-08-29T10:05:13.353Z,43.04
2023-08-29T10:08:25.216Z,43.37
2023-08-29T10:11:32.416Z,42.58
2023-08-29T10:14:39.816Z,42.66
2023-08-29T10:17:44.006Z,43.08
2023-08-29T10:20:47.333Z,42.12
2023-08-29T10:23:52.749Z,42.44
2023-08-29T10:26:55.257Z,42.53
2023-08-29T10:29:57.334Z,42.27
2023-08-29T10:32:59.980Z,42.07
2023-08-29T10:36:05.028Z,41.78
2023-08-29T10:39:10.769Z,41.67
2023-08-29T10:42:15.605Z,41.01
2023-08-29T10:45:17.798Z,42.07
2023-08-29T10:48:46.182Z,41.86
2023-08-29T10:52:08.604Z,41.85
2023-08-29T10:55:21.888Z,42.13
2023-08-29T10:58:42.767Z,42.82
2023-08-29T11:01:44.745Z,43.54
2023-08-29T11:04:55.934Z,42.81
2023-08-29T11:08:24.037Z,42.25
2023-08-29T11:11:25.926Z,43.19
2023-08-29T11:14:54.437Z,42.81
2023-08-29T11:18:24.775Z,43.04
2023-08-29T11:21:27.099Z,42.54
2023-08-29T11:24:30.482Z,43.21
2023-08-29T11:27:39.413Z,42.53
2023-08-29T11:30:44.802Z,43.01
2023-08-29T11:33:48.000Z,43.55
2023-08-29T11:36:52.329Z,43.27
2023-08-29T11:39:56.743Z,43.43
2023-08-29T11:43:49.927Z,43.48
2023-08-29T11:46:21.255Z,43.29
2023-08-29T11:49:23.184Z,43.49
2023-08-29T11:52:25.251Z,43.51
2023-08-29T11:55:27.383Z,42.98
2023-08-29T11:58:30.699Z,43.46
2023-08-29T12:01:37.699Z,42.72
2023-08-29T12:04:43.793Z,42.68
2023-08-29T12:07:46.222Z,43.17
2023-08-29T12:10:54.014Z,42.47
2023-08-29T12:14:08.287Z,42.35
2023-08-29T12:17:10.698Z,42.51
2023-08-29T12:20:12.511Z,42.50
2023-08-29T12:23:23.864Z,42.69
2023-08-29T12:26:26.302Z,42.68
2023-08-29T12:29:28.227Z,42.09
2023-08-29T12:32:30.797Z,42.83
2023-08-29T12:35:32.704Z,42.71
2023-08-29T12:38:34.712Z,42.68
2023-08-29T12:41:37.566Z,43.44
2023-08-29T12:44:39.531Z,43.29
2023-08-29T12:47:41.540Z,43.83
2023-08-29T12:50:44.000Z,43.30
2023-08-29T12:53:45.829Z,43.08
2023-08-29T12:56:47.783Z,42.66
2023-08-29T12:59:49.748Z,42.59
2023-08-29T13:02:52.310Z,42.89
2023-08-29T13:05:54.529Z,42.80
2023-08-29T13:08:57.733Z,42.76
2023-08-29T13:11:59.549Z,43.04
2023-08-29T13:15:01.435Z,43.20
2023-08-29T13:18:04.062Z,43.36
2023-08-29T13:21:05.981Z,43.28
2023-08-29T13:24:08.368Z,43.72
2023-08-29T13:27:10.481Z,43.50
2023-08-29T13:30:13.664Z,43.77
2023-08-29T13:33:15.570Z,44.65
2023-08-29T13:36:17.496Z,44.43
2023-08-29T13:39:19.453Z,44.29
2023-08-29T13:42:21.380Z,44.34
2023-08-29T13:45:23.330Z,44.62
2023-08-29T13:48:25.282Z,44.69
2023-08-29T13:51:27.404Z,44.64
2023-08-29T13:54:29.318Z,44.54
2023-08-29T13:57:31.961Z,45.15
2023-08-29T14:00:33.975Z,44.25
2023-08-29T14:03:39.106Z,45.24
2023-08-29T14:06:41.546Z,44.63
2023-08-29T14:09:43.653Z,44.18
2023-08-29T14:12:46.197Z,44.35
2023-08-29T14:15:48.097Z,43.96
2023-08-29T14:18:50.029Z,44.52
2023-08-29T14:21:51.993Z,44.29
2023-08-29T14:24:53.928Z,44.51
2023-08-29T14:27:58.452Z,44.31
2023-08-29T14:31:00.449Z,44.16
2023-08-29T14:34:02.393Z,44.12
2023-08-29T14:37:05.132Z,44.34
2023-08-29T14:40:08.102Z,44.54
2023-08-29T14:43:10.570Z,44.46
2023-08-29T14:46:12.477Z,44.76
2023-08-29T14:49:16.406Z,44.55
2023-08-29T14:52:18.369Z,44.95
2023-08-29T14:55:22.670Z,45.36
2023-08-29T14:58:25.791Z,45.19
2023-08-29T15:01:28.134Z,45.87
2023-08-29T15:04:30.054Z,46.16
2023-08-29T15:07:32.009Z,46.79
2023-08-29T15:10:34.224Z,46.71
2023-08-29T15:13:36.300Z,47.17
2023-08-29T15:16:38.226Z,47.39
2023-08-29T15:19:40.488Z,47.91
2023-08-29T15:22:45.382Z,48.10
2023-08-29T15:25:47.270Z,48.32
2023-08-29T15:28:49.312Z,48.48
2023-08-29T15:31:51.222Z,48.97
2023-08-29T15:34:53.179Z,49.59
2023-08-29T15:37:55.137Z,49.78
2023-08-29T15:40:57.055Z,50.06
2023-08-29T15:43:58.944Z,50.42
2023-08-29T15:47:01.707Z,50.18
2023-08-29T15:50:04.230Z,50.64
2023-08-29T15:53:06.127Z,50.39
2023-08-29T15:56:08.498Z,50.74
2023-08-29T15:59:10.324Z,50.78
2023-08-29T16:02:12.324Z,51.16
2023-08-29T16:05:14.560Z,51.43
2023-08-29T16:08:16.904Z,51.95
2023-08-29T16:11:20.640Z,51.96
2023-08-29T16:14:23.397Z,52.18
2023-08-29T16:17:26.475Z,52.32
2023-08-29T16:20:28.466Z,52.28
2023-08-29T16:23:30.845Z,52.83
2023-08-29T16:26:32.760Z,53.01
2023-08-29T16:29:34.739Z,53.88
2023-08-29T16:32:36.933Z,53.76
2023-08-29T16:35:38.874Z,54.42
2023-08-29T16:38:41.083Z,54.80
2023-08-29T16:41:42.887Z,55.31
2023-08-29T16:44:44.802Z,55.01
2023-08-29T16:47:46.825Z,55.49
2023-08-29T16:50:50.950Z,55.74
2023-08-29T16:53:52.814Z,55.97
2023-08-29T16:56:54.570Z,56.88
2023-08-29T17:00:01.761Z,56.64
2023-08-29T17:03:11.180Z,57.07
2023-08-29T17:06:14.045Z,57.44
2023-08-29T17:09:15.988Z,57.56
2023-08-29T17:12:18.896Z,58.23
2023-08-29T17:15:20.819Z,57.86
2023-08-29T17:18:22.635Z,58.64
2023-08-29T17:21:24.841Z,58.37
2023-08-29T17:24:27.237Z,58.56
2023-08-29T17:27:29.230Z,58.59
2023-08-29T17:30:31.038Z,59.98
2023-08-29T17:33:33.040Z,59.35
2023-08-29T17:36:34.889Z,59.98
2023-08-29T17:39:37.278Z,59.51
2023-08-29T17:42:43.838Z,60.14
2023-08-29T17:45:46.088Z,59.83
2023-08-29T17:48:48.033Z,60.03
2023-08-29T17:51:50.012Z,60.51
2023-08-29T17:54:52.209Z,61.43
2023-08-29T17:57:54.212Z,60.86
2023-08-29T18:00:55.966Z,61.79
2023-08-29T18:03:59.848Z,60.76
2023-08-29T18:07:01.860Z,61.00
2023-08-29T18:10:10.988Z,61.75
2023-08-29T18:13:13.812Z,61.13
2023-08-29T18:16:15.771Z,61.51
2023-08-29T18:19:17.766Z,61.63
2023-08-29T18:22:19.675Z,61.87
2023-08-29T18:25:21.630Z,62.08
2023-08-29T18:28:23.516Z,62.30
2023-08-29T18:31:25.478Z,62.18
2023-08-29T18:34:27.336Z,62.49
2023-08-29T18:37:29.242Z,62.19
2023-08-29T18:40:31.362Z,62.19
2023-08-29T18:43:33.154Z,63.09
2023-08-29T18:46:35.365Z,62.64
2023-08-29T18:49:37.284Z,62.78
2023-08-29T18:52:39.393Z,62.89
2023-08-29T18:55:45.267Z,63.39
2023-08-29T18:58:47.301Z,63.24
2023-08-29T19:01:49.267Z,63.22
2023-08-29T19:04:51.576Z,63.44
2023-08-29T19:07:55.753Z,63.10
2023-08-29T19:11:06.212Z,63.40
2023-08-29T19:14:08.542Z,63.14
2023-08-29T19:17:10.437Z,63.17
2023-08-29T19:20:12.550Z,63.46
2023-08-29T19:23:14.679Z,63.98
2023-08-29T19:26:16.618Z,63.36
2023-08-29T19:29:20.091Z,63.52
2023-08-29T19:32:22.142Z,63.51
2023-08-29T19:35:27.079Z,63.57
2023-08-29T19:38:28.973Z,63.41
2023-08-29T19:41:32.060Z,63.52
2023-08-29T19:44:34.030Z,63.72
2023-08-29T19:47:35.925Z,63.80
2023-08-29T19:50:37.891Z,63.82
2023-08-29T19:53:39.692Z,63.89
2023-08-29T19:56:41.653Z,64.01
2023-08-29T19:59:43.615Z,64.25
2023-08-29T20:02:48.005Z,64.35
2023-08-29T20:05:50.179Z,64.69
2023-08-29T20:08:52.696Z,64.58
2023-08-29T20:11:55.147Z,64.81
2023-08-29T20:14:57.083Z,64.66
2023-08-29T20:17:59.541Z,64.92
2023-08-29T20:21:02.237Z,64.92
2023-08-29T20:24:04.763Z,64.85
2023-08-29T20:27:06.742Z,64.99
2023-08-29T20:30:10.895Z,64.79
2023-08-29T20:33:12.793Z,64.94
2023-08-29T20:36:14.777Z,64.85
2023-08-29T20:39:16.756Z,64.92
2023-08-29T20:42:18.730Z,65.15
2023-08-29T20:45:23.115Z,65.05
2023-08-29T20:48:26.163Z,65.42
2023-08-29T20:51:30.393Z,65.26
2023-08-29T20:54:32.229Z,64.89
2023-08-29T20:57:34.213Z,64.76
2023-08-29T21:00:36.317Z,64.75
2023-08-29T21:03:38.334Z,64.87
2023-08-29T21:06:40.403Z,64.86
2023-08-29T21:09:42.459Z,64.73
2023-08-29T21:12:44.412Z,64.58
2023-08-29T21:15:47.139Z,64.50
2023-08-29T21:18:49.019Z,64.38
2023-08-29T21:21:50.965Z,64.68
2023-08-29T21:24:53.919Z,64.80
2023-08-29T21:27:55.798Z,64.60
2023-08-29T21:30:57.838Z,64.46
2023-08-29T21:33:59.717Z,64.32
2023-08-29T21:37:01.633Z,64.44
2023-08-29T21:40:05.950Z,64.54
2023-08-29T21:43:09.847Z,64.54
2023-08-29T21:46:11.847Z,64.64
2023-08-29T21:49:13.689Z,64.54
2023-08-29T21:52:15.617Z,64.94
2023-08-29T21:55:17.537Z,64.73
2023-08-29T21:58:23.169Z,64.88
2023-08-29T22:01:25.153Z,64.74
2023-08-29T22:04:27.056Z,64.52
2023-08-29T22:07:29.132Z,64.75
2023-08-29T22:10:32.329Z,64.68
2023-08-29T22:13:35.912Z,65.03
2023-08-29T22:16:37.808Z,64.86
2023-08-29T22:19:39.697Z,64.68
2023-08-29T22:22:42.040Z,64.75
2023-08-29T22:25:44.806Z,64.65
2023-08-29T22:28:46.568Z,64.85
2023-08-29T22:31:48.489Z,64.34
2023-08-29T22:34:50.539Z,64.55
2023-08-29T22:37:53.084Z,64.40
2023-08-29T22:40:55.244Z,63.95
2023-08-29T22:43:57.178Z,64.16
2023-08-29T22:46:59.178Z,64.03
2023-08-29T22:50:01.254Z,64.04
2023-08-29T22:53:03.438Z,64.26
2023-08-29T22:56:06.257Z,64.19
2023-08-29T22:59:08.114Z,64.19
2023-08-29T23:02:10.124Z,63.89
2023-08-29T23:05:12.196Z,63.85
2023-08-29T23:08:14.963Z,63.98
2023-08-29T23:11:16.984Z,63.99
2023-08-29T23:14:26.865Z,64.07
2023-08-29T23:17:29.440Z,64.02
2023-08-29T23:20:31.526Z,63.84
2023-08-29T23:23:34.887Z,64.05
2023-08-29T23:26:37.347Z,64.22
2023-08-29T23:29:39.431Z,63.86
2023-08-29T23:32:41.352Z,64.08
2023-08-29T23:35:43.220Z,64.30
2023-08-29T23:38:45.245Z,64.12
2023-08-29T23:41:49.040Z,63.76
2023-08-29T23:44:51.013Z,63.84
2023-08-29T23:47:53.034Z,63.63
2023-08-29T23:50:54.980Z,63.43
2023-08-29T23:53:56.991Z,63.23
2023-08-29T23:56:58.935Z,62.86
